createdAt,value
2017-11-01T00:01:22.965Z,7.43
2017-11-01T00:03:49.297Z,5.10
2017-11-01T00:06:15.617Z,4.60
2017-11-01T00:08:42.649Z,6.90
2017-11-01T00:11:08.937Z,6.47
2017-11-01T00:13:35.303Z,9.00
2017-11-01T00:16:01.637Z,5.97
2017-11-01T00:18:28.008Z,9.20
2017-11-01T00:20:54.438Z,7.20
2017-11-01T00:23:20.842Z,11.00
2017-11-01T00:25:47.166Z,9.87
2017-11-01T00:28:13.491Z,8.43
2017-11-01T00:30:39.810Z,7.40
2017-11-01T00:33:06.170Z,16.50
2017-11-01T00:35:32.498Z,9.10
2017-11-01T00:37:58.854Z,6.40
2017-11-01T00:40:25.890Z,11.23
2017-11-01T00:42:52.990Z,9.07
2017-11-01T00:45:19.324Z,11.10
2017-11-01T00:47:45.654Z,10.40
2017-11-01T00:50:11.940Z,6.83
2017-11-01T00:52:39.369Z,6.97
2017-11-01T00:55:05.699Z,8.50
2017-11-01T00:57:31.989Z,9.70
2017-11-01T00:59:58.314Z,6.17
2017-11-01T01:02:24.604Z,8.50
2017-11-01T01:04:51.705Z,10.53
2017-11-01T01:07:18.057Z,7.07
2017-11-01T01:09:44.365Z,6.73
2017-11-01T01:12:10.736Z,7.97
2017-11-01T01:14:37.557Z,4.93
2017-11-01T01:17:03.845Z,7.27
2017-11-01T01:19:30.217Z,6.67
2017-11-01T01:21:57.250Z,7.97
2017-11-01T01:24:23.513Z,9.10
2017-11-01T01:26:50.040Z,6.83
2017-11-01T01:29:16.346Z,7.40
2017-11-01T01:31:42.692Z,6.53
2017-11-01T01:34:09.069Z,6.97
2017-11-01T01:36:36.092Z,7.20
2017-11-01T01:39:02.484Z,9.13
2017-11-01T01:41:28.815Z,8.90
2017-11-01T01:43:55.457Z,10.20
2017-11-01T01:46:21.884Z,8.87
2017-11-01T01:48:48.184Z,7.23
2017-11-01T01:51:14.488Z,8.27
2017-11-01T01:53:40.808Z,10.90
2017-11-01T01:56:07.139Z,9.37
2017-11-01T01:58:34.419Z,13.20
2017-11-01T02:01:01.502Z,12.07
2017-11-01T02:03:27.841Z,12.70
2017-11-01T02:05:54.121Z,7.70
2017-11-01T02:08:20.431Z,8.00
2017-11-01T02:10:47.691Z,8.90
2017-11-01T02:13:14.078Z,10.37
2017-11-01T02:15:40.345Z,7.93
2017-11-01T02:18:06.685Z,6.93
2017-11-01T02:20:33.120Z,12.50
2017-11-01T02:23:00.217Z,14.33
2017-11-01T02:25:26.587Z,9.90
2017-11-01T02:27:53.042Z,9.60
2017-11-01T02:30:19.452Z,6.77
2017-11-01T02:32:45.851Z,6.93
2017-11-01T02:35:12.261Z,10.87
2017-11-01T02:37:39.340Z,6.90
2017-11-01T02:40:05.632Z,11.33
2017-11-01T02:42:32.744Z,9.80
2017-11-01T02:44:59.253Z,9.17
2017-11-01T02:47:25.610Z,8.87
2017-11-01T02:49:51.946Z,10.83
2017-11-01T02:52:18.287Z,8.17
2017-11-01T02:54:44.593Z,9.03
2017-11-01T02:57:10.911Z,6.53
2017-11-01T02:59:37.270Z,11.37
2017-11-01T03:02:04.591Z,9.30
2017-11-01T03:04:30.993Z,8.03
2017-11-01T03:06:58.103Z,7.63
2017-11-01T03:09:24.403Z,6.43
2017-11-01T03:11:51.169Z,11.33
2017-11-01T03:14:17.507Z,12.17
2017-11-01T03:16:43.867Z,11.23
2017-11-01T03:19:10.165Z,10.73
2017-11-01T03:21:36.460Z,12.83
2017-11-01T03:24:03.548Z,10.93
2017-11-01T03:26:29.840Z,11.40
2017-11-01T03:28:56.907Z,10.93
2017-11-01T03:31:23.202Z,11.83
2017-11-01T03:33:50.212Z,12.63
2017-11-01T03:36:16.574Z,16.57
2017-11-01T03:38:42.864Z,7.70
2017-11-01T03:41:09.091Z,9.70
2017-11-01T03:43:35.374Z,13.57
2017-11-01T03:46:03.294Z,8.73
2017-11-01T03:48:29.611Z,10.90
2017-11-01T03:50:55.988Z,7.33
2017-11-01T03:53:22.274Z,11.60
2017-11-01T03:55:48.678Z,14.13
2017-11-01T03:58:15.759Z,11.70
2017-11-01T04:00:42.113Z,20.10
2017-11-01T04:03:08.389Z,8.40
2017-11-01T04:05:35.468Z,9.20
2017-11-01T04:08:01.828Z,9.17
2017-11-01T04:10:28.115Z,16.53
2017-11-01T04:12:54.375Z,9.00
2017-11-01T04:15:20.673Z,10.00
2017-11-01T04:17:46.922Z,15.40
2017-11-01T04:20:13.182Z,7.60
2017-11-01T04:22:40.238Z,17.00
2017-11-01T04:25:06.626Z,8.90
2017-11-01T04:27:33.030Z,11.97
2017-11-01T04:30:00.118Z,12.70
2017-11-01T04:32:26.538Z,18.60
2017-11-01T04:34:52.860Z,10.60
2017-11-01T04:37:19.204Z,11.13
2017-11-01T04:39:45.524Z,12.13
2017-11-01T04:42:11.842Z,7.83
2017-11-01T04:44:38.921Z,9.60
2017-11-01T04:47:05.308Z,8.83
2017-11-01T04:49:32.430Z,11.00
2017-11-01T04:51:58.784Z,13.20
2017-11-01T04:54:25.931Z,11.90
2017-11-01T04:56:52.995Z,11.83
2017-11-01T04:59:19.399Z,13.87
2017-11-01T05:01:52.142Z,9.73
2017-11-01T05:04:18.840Z,10.73
2017-11-01T05:06:45.958Z,12.30
2017-11-01T05:09:13.143Z,8.03
2017-11-01T05:11:40.302Z,11.77
2017-11-01T05:14:14.057Z,8.87
2017-11-01T05:16:43.300Z,11.87
2017-11-01T05:19:12.411Z,14.07
2017-11-01T05:21:38.763Z,10.70
2017-11-01T05:24:05.277Z,12.10
2017-11-01T05:26:31.627Z,9.53
2017-11-01T05:28:57.948Z,12.10
2017-11-01T05:31:24.281Z,12.80
2017-11-01T05:33:50.631Z,13.63
2017-11-01T05:36:16.943Z,11.10
2017-11-01T05:38:43.343Z,10.07
2017-11-01T05:41:09.720Z,11.53
2017-11-01T05:43:36.105Z,12.97
2017-11-01T05:46:03.185Z,18.57
2017-11-01T05:48:29.805Z,14.90
2017-11-01T05:50:56.943Z,13.90
2017-11-01T05:53:24.265Z,11.00
2017-11-01T05:55:50.676Z,15.10
2017-11-01T05:58:17.003Z,13.17
2017-11-01T06:00:43.294Z,17.00
2017-11-01T06:03:10.537Z,11.40
2017-11-01T06:05:36.842Z,14.43
2017-11-01T06:08:03.215Z,14.07
2017-11-01T06:10:30.284Z,13.27
2017-11-01T06:12:56.941Z,13.07
2017-11-01T06:17:56.384Z,14.90
2017-11-01T06:20:22.843Z,13.77
2017-11-01T06:22:49.233Z,12.83
2017-11-01T06:25:15.650Z,13.53
2017-11-01T06:27:42.046Z,11.70
2017-11-01T06:30:08.444Z,12.83
2017-11-01T06:32:34.782Z,10.93
2017-11-01T06:35:01.177Z,15.73
2017-11-01T06:37:27.545Z,13.83
2017-11-01T06:39:53.932Z,13.03
2017-11-01T06:42:21.033Z,13.20
2017-11-01T06:44:47.505Z,15.20
2017-11-01T06:47:14.495Z,9.90
2017-11-01T06:49:40.827Z,13.53
2017-11-01T06:52:07.232Z,15.60
2017-11-01T06:54:33.627Z,11.37
2017-11-01T06:56:59.957Z,13.50
2017-11-01T06:59:26.301Z,11.03
2017-11-01T07:01:52.725Z,13.43
2017-11-01T07:04:19.091Z,14.83
2017-11-01T07:06:45.416Z,15.63
2017-11-01T07:09:12.542Z,11.90
2017-11-01T07:11:38.879Z,14.97
2017-11-01T07:14:05.986Z,14.30
2017-11-01T07:16:32.311Z,10.70
2017-11-01T07:18:58.636Z,12.83
2017-11-01T07:21:24.946Z,11.23
2017-11-01T07:23:51.268Z,12.90
2017-11-01T07:26:18.346Z,12.90
2017-11-01T07:28:44.632Z,8.30
2017-11-01T07:31:11.736Z,13.50
2017-11-01T07:33:38.161Z,16.60
2017-11-01T07:36:04.569Z,13.40
2017-11-01T07:38:30.842Z,11.33
2017-11-01T07:40:57.420Z,12.83
2017-11-01T07:43:24.473Z,12.03
2017-11-01T07:45:51.560Z,15.43
2017-11-01T07:48:17.949Z,9.13
2017-11-01T07:50:44.287Z,9.13
2017-11-01T07:53:11.418Z,7.87
2017-11-01T07:55:37.729Z,11.10
2017-11-01T07:58:04.106Z,9.30
2017-11-01T08:00:30.565Z,13.50
2017-11-01T08:02:56.943Z,12.90
2017-11-01T08:05:23.309Z,11.10
2017-11-01T08:07:49.630Z,10.77
2017-11-01T08:10:16.860Z,7.50
2017-11-01T08:12:43.209Z,7.43
2017-11-01T08:15:10.303Z,8.07
2017-11-01T08:17:36.656Z,10.57
2017-11-01T08:20:03.083Z,12.80
2017-11-01T08:22:29.960Z,9.87
2017-11-01T08:24:57.010Z,8.77
2017-11-01T08:27:24.108Z,13.80
2017-11-01T08:29:50.467Z,12.97
2017-11-01T08:32:17.724Z,9.03
2017-11-01T08:34:44.055Z,10.53
2017-11-01T08:37:10.590Z,9.03
2017-11-01T08:39:37.016Z,10.20
2017-11-01T08:42:03.373Z,10.17
2017-11-01T08:44:29.719Z,10.30
2017-11-01T08:46:56.077Z,13.07
2017-11-01T08:49:22.448Z,13.47
2017-11-01T08:51:48.871Z,13.87
2017-11-01T08:54:15.187Z,13.83
2017-11-01T08:56:41.669Z,13.17
2017-11-01T08:59:08.082Z,13.00
2017-11-01T09:01:41.536Z,11.13
2017-11-01T09:04:07.855Z,14.20
2017-11-01T09:06:34.272Z,12.00
2017-11-01T09:09:01.358Z,12.87
2017-11-01T09:11:27.704Z,13.40
2017-11-01T09:13:54.013Z,16.80
2017-11-01T09:16:20.350Z,12.70
2017-11-01T09:18:46.730Z,16.50
2017-11-01T09:21:13.383Z,12.80
2017-11-01T09:23:40.506Z,15.20
2017-11-01T09:26:06.862Z,16.00
2017-11-01T09:28:33.890Z,11.47
2017-11-01T09:31:01.180Z,13.47
2017-11-01T09:33:28.256Z,11.70
2017-11-01T09:35:54.563Z,12.37
2017-11-01T09:38:21.188Z,16.63
2017-11-01T09:40:48.256Z,12.77
2017-11-01T09:43:14.690Z,9.57
2017-11-01T09:45:40.998Z,15.37
2017-11-01T09:48:08.134Z,14.30
2017-11-01T09:50:34.560Z,11.43
2017-11-01T09:53:00.992Z,14.40
2017-11-01T09:55:27.323Z,13.77
2017-11-01T09:57:53.625Z,16.27
2017-11-01T10:00:20.043Z,16.03
2017-11-01T10:02:46.405Z,11.23
2017-11-01T10:05:12.763Z,15.60
2017-11-01T10:07:46.081Z,9.00
2017-11-01T10:10:12.491Z,11.90
2017-11-01T10:12:38.929Z,13.47
2017-11-01T10:15:05.295Z,11.43
2017-11-01T10:17:31.679Z,10.50
2017-11-01T10:19:58.188Z,10.73
2017-11-01T10:22:24.561Z,9.70
2017-11-01T10:24:51.640Z,10.80
2017-11-01T10:27:18.084Z,10.07
2017-11-01T10:29:44.371Z,13.93
2017-11-01T10:32:10.833Z,10.97
2017-11-01T10:34:37.165Z,8.33
2017-11-01T10:37:03.572Z,10.87
2017-11-01T10:39:29.939Z,8.40
2017-11-01T10:41:56.272Z,9.30
2017-11-01T10:44:22.612Z,13.30
2017-11-01T10:46:48.969Z,10.27
2017-11-01T10:49:15.365Z,12.07
2017-11-01T10:51:41.825Z,13.03
2017-11-01T10:54:08.169Z,9.67
2017-11-01T10:56:34.474Z,8.90
2017-11-01T10:59:00.819Z,11.83
2017-11-01T11:01:27.172Z,11.50
2017-11-01T11:03:53.518Z,11.10
2017-11-01T11:06:19.926Z,13.27
2017-11-01T11:08:46.265Z,8.57
2017-11-01T11:11:12.564Z,10.00
2017-11-01T11:13:38.877Z,9.83
2017-11-01T11:16:05.251Z,8.77
2017-11-01T11:18:31.647Z,13.20
2017-11-01T11:20:57.989Z,9.50
2017-11-01T11:23:24.346Z,10.03
2017-11-01T11:25:50.686Z,11.83
2017-11-01T11:28:16.966Z,11.93
2017-11-01T11:30:43.382Z,13.63
2017-11-01T11:33:10.504Z,9.93
2017-11-01T11:35:36.842Z,10.40
2017-11-01T11:38:03.155Z,13.60
2017-11-01T11:40:29.503Z,14.20
2017-11-01T11:42:55.852Z,13.93
2017-11-01T11:45:22.231Z,10.47
2017-11-01T11:47:48.625Z,10.77
2017-11-01T11:50:15.901Z,11.00
2017-11-01T11:52:42.191Z,8.53
2017-11-01T11:55:08.538Z,9.43
2017-11-01T11:57:35.625Z,11.47
2017-11-01T12:00:02.004Z,13.70
2017-11-01T12:02:28.300Z,9.30
2017-11-01T12:04:54.649Z,12.57
2017-11-01T12:07:21.141Z,9.97
2017-11-01T12:09:47.561Z,9.00
2017-11-01T12:12:13.877Z,10.83
2017-11-01T12:14:41.020Z,9.17
2017-11-01T12:17:08.110Z,10.30
2017-11-01T12:19:34.728Z,12.17
2017-11-01T12:22:01.098Z,9.00
2017-11-01T12:24:27.487Z,9.93
2017-11-01T12:26:54.598Z,9.70
2017-11-01T12:29:21.153Z,12.13
2017-11-01T12:31:48.271Z,9.57
2017-11-01T12:34:14.633Z,10.43
2017-11-01T12:36:41.697Z,8.23
2017-11-01T12:39:08.878Z,14.03
2017-11-01T12:41:35.217Z,8.77
2017-11-01T12:44:01.569Z,12.13
2017-11-01T12:46:27.951Z,11.00
2017-11-01T12:48:54.367Z,9.57
2017-11-01T12:51:21.526Z,7.90
2017-11-01T12:53:48.840Z,8.20
2017-11-01T12:56:15.191Z,8.90
2017-11-01T12:58:41.770Z,9.30
2017-11-01T13:01:08.212Z,8.00
2017-11-01T13:03:34.522Z,11.70
2017-11-01T13:06:00.915Z,9.97
2017-11-01T13:08:27.244Z,10.33
2017-11-01T13:10:53.623Z,9.97
2017-11-01T13:13:19.974Z,11.30
2017-11-01T13:15:46.301Z,10.83
2017-11-01T13:18:12.695Z,13.77
2017-11-01T13:20:39.842Z,12.90
2017-11-01T13:23:06.931Z,14.67
2017-11-01T13:25:33.274Z,14.47
2017-11-01T13:27:59.614Z,14.13
2017-11-01T13:30:26.093Z,16.67
2017-11-01T13:32:53.168Z,15.73
2017-11-01T13:35:19.511Z,15.00
2017-11-01T13:37:45.777Z,13.13
2017-11-01T13:40:12.107Z,15.70
2017-11-01T13:42:38.480Z,13.50
2017-11-01T13:45:05.523Z,17.30
2017-11-01T13:47:33.496Z,14.10
2017-11-01T13:50:00.778Z,15.57
2017-11-01T13:52:27.158Z,18.73
2017-11-01T13:54:53.462Z,17.40
2017-11-01T13:57:19.812Z,18.80
2017-11-01T13:59:46.214Z,16.13
2017-11-01T14:02:12.550Z,19.50
2017-11-01T14:04:38.906Z,18.83
2017-11-01T14:07:05.281Z,19.97
2017-11-01T14:09:31.574Z,17.23
2017-11-01T14:11:57.942Z,17.60
2017-11-01T14:14:24.360Z,18.80
2017-11-01T14:16:50.759Z,18.97
2017-11-01T14:19:17.294Z,17.60
2017-11-01T14:21:43.697Z,15.43
2017-11-01T14:24:10.225Z,23.57
2017-11-01T14:26:36.643Z,21.63
2017-11-01T14:29:03.051Z,18.57
2017-11-01T14:31:29.409Z,18.87
2017-11-01T14:33:56.509Z,17.07
2017-11-01T14:36:23.118Z,18.97
2017-11-01T14:38:49.457Z,20.23
2017-11-01T14:41:15.854Z,17.17
2017-11-01T14:43:43.071Z,26.87
2017-11-01T14:46:09.402Z,19.10
2017-11-01T14:48:35.823Z,19.00
2017-11-01T14:51:02.268Z,16.50
2017-11-01T14:53:28.682Z,24.20
2017-11-01T14:55:55.143Z,23.03
2017-11-01T14:58:21.565Z,24.73
2017-11-01T15:00:47.899Z,29.33
2017-11-01T15:03:14.259Z,18.70
2017-11-01T15:05:41.350Z,23.23
2017-11-01T15:08:07.742Z,22.70
2017-11-01T15:10:34.740Z,21.33
2017-11-01T15:13:01.073Z,26.87
2017-11-01T15:15:27.386Z,25.43
2017-11-01T15:17:53.710Z,21.03
2017-11-01T15:20:20.067Z,20.93
2017-11-01T15:22:46.454Z,23.77
2017-11-01T15:25:13.907Z,19.20
2017-11-01T15:27:41.039Z,27.50
2017-11-01T15:30:07.430Z,26.90
2017-11-01T15:32:33.773Z,25.70
2017-11-01T15:35:00.123Z,25.23
2017-11-01T15:37:26.494Z,18.27
2017-11-01T15:39:53.542Z,25.23
2017-11-01T15:42:20.618Z,29.87
2017-11-01T15:44:47.739Z,19.13
2017-11-01T15:47:14.832Z,28.77
2017-11-01T15:49:41.183Z,22.17
2017-11-01T15:52:07.558Z,30.90
2017-11-01T15:54:33.970Z,30.77
2017-11-01T15:57:01.203Z,23.97
2017-11-01T15:59:27.530Z,22.30
2017-11-01T16:01:53.814Z,25.33
2017-11-01T16:04:20.153Z,27.23
2017-11-01T16:06:46.478Z,26.87
2017-11-01T16:09:12.812Z,24.80
2017-11-01T16:11:39.176Z,24.60
2017-11-01T16:14:05.647Z,35.77
2017-11-01T16:16:32.733Z,26.93
2017-11-01T16:18:59.073Z,35.13
2017-11-01T16:21:26.477Z,26.07
2017-11-01T16:23:53.563Z,31.43
2017-11-01T16:26:19.885Z,30.50
2017-11-01T16:28:47.174Z,30.80
2017-11-01T16:31:13.523Z,24.93
2017-11-01T16:33:40.114Z,32.63
2017-11-01T16:36:06.508Z,28.77
2017-11-01T16:38:32.808Z,26.27
2017-11-01T16:40:59.247Z,31.40
2017-11-01T16:43:25.585Z,29.33
2017-11-01T16:45:52.010Z,28.30
2017-11-01T16:48:18.344Z,30.63
2017-11-01T16:50:44.699Z,33.83
2017-11-01T16:53:11.029Z,26.87
2017-11-01T16:55:37.346Z,27.50
2017-11-01T16:58:03.709Z,27.00
2017-11-01T17:00:30.793Z,25.07
2017-11-01T17:02:57.228Z,27.53
2017-11-01T17:05:23.677Z,23.70
2017-11-01T17:07:50.017Z,25.80
2017-11-01T17:10:17.109Z,25.57
2017-11-01T17:12:44.367Z,24.23
2017-11-01T17:15:11.401Z,25.40
2017-11-01T17:17:38.508Z,32.53
2017-11-01T17:20:04.887Z,25.30
2017-11-01T17:22:32.136Z,23.87
2017-11-01T17:24:59.420Z,20.57
2017-11-01T17:27:25.786Z,27.23
2017-11-01T17:29:52.142Z,23.27
2017-11-01T17:32:18.591Z,30.60
2017-11-01T17:34:45.688Z,25.83
2017-11-01T17:37:12.072Z,23.77
2017-11-01T17:39:39.182Z,23.70
2017-11-01T17:42:05.640Z,24.57
2017-11-01T17:44:32.081Z,26.10
2017-11-01T17:46:59.401Z,28.80
2017-11-01T17:49:25.703Z,31.43
2017-11-01T17:51:52.159Z,27.40
2017-11-01T17:54:22.065Z,25.53
2017-11-01T17:56:48.465Z,23.03
2017-11-01T17:59:15.578Z,25.20
2017-11-01T18:01:41.940Z,24.90
2017-11-01T18:04:09.001Z,27.47
2017-11-01T18:06:35.952Z,24.03
2017-11-01T18:09:02.334Z,29.63
2017-11-01T18:11:28.688Z,25.80
2017-11-01T18:13:56.250Z,30.60
2017-11-01T18:16:23.387Z,19.33
2017-11-01T18:18:49.748Z,24.33
2017-11-01T18:21:16.877Z,23.13
2017-11-01T18:23:43.939Z,23.20
2017-11-01T18:26:11.011Z,23.70
2017-11-01T18:28:37.417Z,23.10
2017-11-01T18:31:04.575Z,21.23
2017-11-01T18:33:31.617Z,22.40
2017-11-01T18:35:58.620Z,25.20
2017-11-01T18:38:25.026Z,18.87
2017-11-01T18:40:51.728Z,24.17
2017-11-01T18:43:18.290Z,23.80
2017-11-01T18:45:44.657Z,23.23
2017-11-01T18:48:11.238Z,26.07
2017-11-01T18:50:38.426Z,22.40
2017-11-01T18:53:04.859Z,22.00
2017-11-01T18:55:31.218Z,23.77
2017-11-01T18:57:57.579Z,20.47
2017-11-01T19:00:23.925Z,31.40
2017-11-01T19:02:50.994Z,22.77
2017-11-01T19:05:17.403Z,18.43
2017-11-01T19:07:43.827Z,16.83
2017-11-01T19:10:10.271Z,17.47
2017-11-01T19:12:37.533Z,18.63
2017-11-01T19:15:05.625Z,17.60
2017-11-01T19:17:32.274Z,16.03
2017-11-01T19:19:58.640Z,16.23
2017-11-01T19:22:25.340Z,18.27
2017-11-01T19:24:51.682Z,14.93
2017-11-01T19:27:18.160Z,14.87
2017-11-01T19:29:44.498Z,17.37
2017-11-01T19:32:10.970Z,18.80
2017-11-01T19:34:37.394Z,16.47
2017-11-01T19:37:03.876Z,15.70
2017-11-01T19:39:30.741Z,20.23
2017-11-01T19:41:57.928Z,18.83
2017-11-01T19:44:24.983Z,13.17
2017-11-01T19:46:51.481Z,16.90
2017-11-01T19:49:19.013Z,14.27
2017-11-01T19:51:45.481Z,14.73
2017-11-01T19:54:12.777Z,15.60
2017-11-01T19:56:39.343Z,14.80
2017-11-01T19:59:05.866Z,16.87
2017-11-01T20:01:32.373Z,9.80
2017-11-01T20:03:58.910Z,13.00
2017-11-01T20:06:25.752Z,18.70
2017-11-01T20:08:52.152Z,16.60
2017-11-01T20:11:18.879Z,13.83
2017-11-01T20:13:46.134Z,13.17
2017-11-01T20:16:12.827Z,15.33
2017-11-01T20:18:39.308Z,12.73
2017-11-01T20:21:06.547Z,16.27
2017-11-01T20:23:33.168Z,13.20
2017-11-01T20:25:59.659Z,15.10
2017-11-01T20:28:26.103Z,15.53
2017-11-01T20:30:52.507Z,13.77
2017-11-01T20:33:19.982Z,14.33
2017-11-01T20:35:47.325Z,11.93
2017-11-01T20:38:14.644Z,12.87
2017-11-01T20:40:42.035Z,11.63
2017-11-01T20:43:10.161Z,18.07
2017-11-01T20:45:36.669Z,19.30
2017-11-01T20:48:03.175Z,15.57
2017-11-01T20:50:29.887Z,13.90
2017-11-01T20:53:01.595Z,14.90
2017-11-01T20:55:28.199Z,16.27
2017-11-01T20:57:54.844Z,16.03
2017-11-01T21:00:21.967Z,11.70
2017-11-01T21:02:48.645Z,12.73
2017-11-01T21:05:16.414Z,12.10
2017-11-01T21:07:44.016Z,11.40
2017-11-01T21:10:12.085Z,11.30
2017-11-01T21:12:38.609Z,10.43
2017-11-01T21:15:05.011Z,14.70
2017-11-01T21:17:32.348Z,11.60
2017-11-01T21:19:59.095Z,13.80
2017-11-01T21:22:26.594Z,12.53
2017-11-01T21:24:53.141Z,11.77
2017-11-01T21:27:19.749Z,14.87
2017-11-01T21:29:46.896Z,14.00
2017-11-01T21:32:14.232Z,12.80
2017-11-01T21:34:40.668Z,11.13
2017-11-01T21:37:07.026Z,11.00
2017-11-01T21:39:33.383Z,14.67
2017-11-01T21:41:59.689Z,10.77
2017-11-01T21:44:26.044Z,17.20
2017-11-01T21:46:52.407Z,10.60
2017-11-01T21:49:18.772Z,13.57
2017-11-01T21:51:46.010Z,16.30
2017-11-01T21:54:12.374Z,9.77
2017-11-01T21:56:38.735Z,10.97
2017-11-01T21:59:05.102Z,11.83
2017-11-01T22:01:31.398Z,10.33
2017-11-01T22:03:57.794Z,17.57
2017-11-01T22:06:24.883Z,13.93
2017-11-01T22:08:51.247Z,11.37
2017-11-01T22:11:18.354Z,10.73
2017-11-01T22:13:44.637Z,10.80
2017-11-01T22:16:11.716Z,12.33
2017-11-01T22:18:38.584Z,18.30
2017-11-01T22:21:05.077Z,10.20
2017-11-01T22:23:31.613Z,13.83
2017-11-01T22:25:57.969Z,17.10
2017-11-01T22:28:24.386Z,14.27
2017-11-01T22:30:50.715Z,16.60
2017-11-01T22:33:17.019Z,12.33
2017-11-01T22:35:44.085Z,9.67
2017-11-01T22:38:11.192Z,13.37
2017-11-01T22:40:37.496Z,17.17
2017-11-01T22:43:03.856Z,22.50
2017-11-01T22:45:30.411Z,14.50
2017-11-01T22:47:58.022Z,13.87
2017-11-01T22:50:24.471Z,15.73
2017-11-01T22:52:50.792Z,15.97
2017-11-01T22:55:17.115Z,12.83
2017-11-01T22:57:43.571Z,13.43
2017-11-01T23:00:10.065Z,11.73
2017-11-01T23:02:36.589Z,10.07
2017-11-01T23:05:02.951Z,17.20
2017-11-01T23:07:29.417Z,10.23
2017-11-01T23:09:55.707Z,11.30
2017-11-01T23:12:22.117Z,11.77
2017-11-01T23:14:49.273Z,6.20
2017-11-01T23:17:16.351Z,11.67
2017-11-01T23:19:42.814Z,8.30
2017-11-01T23:22:09.225Z,10.03
2017-11-01T23:24:35.615Z,7.87
2017-11-01T23:27:02.682Z,9.73
2017-11-01T23:29:29.132Z,8.03
2017-11-01T23:31:55.528Z,10.63
2017-11-01T23:34:22.710Z,8.27
2017-11-01T23:36:49.130Z,9.40
2017-11-01T23:39:15.430Z,13.10
2017-11-01T23:41:41.905Z,8.03
2017-11-01T23:44:08.312Z,10.53
2017-11-01T23:46:34.784Z,12.17
2017-11-01T23:49:01.124Z,12.90
2017-11-01T23:51:27.395Z,7.70
2017-11-01T23:53:53.968Z,12.27
2017-11-01T23:56:20.294Z,8.57
2017-11-01T23:58:46.610Z,8.47
